Terminal Aerodrome Forecast
Issued by NWS Grand Junction, CO

Home | Current Version | Previous Version | Text Only | Print | Product List | Glossary On
Versions: 1 2 3 4 5 6 7 8 9 10 11 12 13
000
FTUS45 KGJT 171850 RRA
TAFGJT
TAF
KGJT 171850Z 1719/1818 VRB03KT P6SM SKC
     FM172100 29005KT P6SM FEW250
     FM180200 10005KT P6SM FEW130 FEW250
     FM181200 11012KT P6SM FEW120 FEW250
     FM181600 14012KT P6SM FEW100 FEW250=

USA.gov is the U.S. government's official web portal to all federal, state and local government web resources and services.